Latest Weather Observations for Leinster

IDW60801

Issued at 5:05 pm WST Monday 24 November 2014 (issued every 30 minutes, with the page automatically refreshed every 10 minutes)

About weather observations | Map of weather stations | Latest weather observations for WA | Other Formats
Station Details ID: 012314 Name: LEINSTER AERO Lat: -27.84 Lon: 120.70 Height: 497.0 m
Data from the previous 72 hours. | See also: Recent months at Leinster
Date/Time
WST
Temp
°C
App
Temp
°C
Dew
Point
Rel
Hum
%
Delta-T
°C
Wind Press
QNH
hPa
Press
MSL
hPa
Rain
since 9 am
mm
Dir
 
Spd
km/h
Gust
km/h
Spd
kts
Gust
kts
24/05:00pm 31.8 27.8 2.9 16 15.0 E 13 24 7 13 1014.4 1011.4 0.0
24/04:30pm 31.7 27.3 2.8 16 15.0 ESE 15 24 8 13 1014.4 1011.4 0.0
24/04:00pm 32.2 27.5 3.2 16 15.2 ENE 17 24 9 13 1014.4 1011.4 0.0
24/03:30pm 31.4 27.1 3.4 17 14.6 ESE 15 32 8 17 1014.5 1011.5 0.0
24/03:00pm 31.2 27.4 4.1 18 14.3 E 13 20 7 11 1014.8 1011.9 0.0
24/02:30pm 31.0 25.6 4.7 19 14.0 SSE 22 30 12 16 1015.1 1012.2 0.0
24/02:00pm 31.3 26.4 4.9 19 14.1 ESE 20 26 11 14 1015.6 1012.7 0.0
24/01:30pm 30.1 25.1 4.7 20 13.5 SE 20 33 11 18 1015.9 1013.0 0.0
24/01:00pm 30.8 24.8 5.3 20 13.7 SE 26 33 14 18 1016.5 1013.6 0.0
24/12:30pm 29.4 24.7 6.1 23 12.6 ESE 20 33 11 18 1016.8 1013.9 0.0
24/12:00pm 29.0 24.6 7.6 26 11.8 E 20 39 11 21 1017.2 1014.3 0.0
24/11:30am 27.6 23.5 8.5 30 10.6 E 20 30 11 16 1017.8 1014.9 0.0
24/11:00am 26.9 22.5 8.8 32 10.1 E 22 33 12 18 1018.4 1015.5 0.0
24/10:30am 25.6 20.8 9.0 35 9.2 ESE 24 35 13 19 1018.8 1015.9 0.0
24/10:00am 24.7 19.8 8.6 36 8.8 ESE 24 33 13 18 1019.3 1016.4 0.0
24/09:30am 24.3 20.1 9.8 40 8.1 E 22 32 12 17 1019.4 1016.5 0.0
24/09:00am 23.2 19.6 10.6 45 7.1 ESE 20 30 11 16 1019.4 1016.5 0.0
24/08:30am 22.9 19.1 11.3 48 6.6 ESE 22 32 12 17 1019.3 1016.4 0.0
24/08:00am 21.4 16.8 10.9 51 5.9 ESE 26 39 14 21 1019.1 1016.2 0.0
24/07:30am 21.2 16.9 10.7 51 5.9 ESE 24 37 13 20 1019.0 1016.1 0.0
24/07:00am 21.1 15.7 9.4 47 6.4 ESE 28 39 15 21 1018.8 1015.9 0.0
24/06:30am 20.9 14.9 5.3 36 7.9 SE 26 35 14 19 1018.1 1015.2 0.0
24/06:00am 20.4 14.0 3.2 32 8.3 SE 26 35 14 19 1017.5 1014.6 0.0
24/05:30am 19.8 14.4 2.2 31 8.3 SE 20 24 11 13 1017.3 1014.4 0.0
24/05:00am 19.6 14.3 1.6 30 8.4 SE 19 22 10 12 1016.8 1013.9 0.0
24/04:30am 19.8 15.2 1.3 29 8.6 SE 15 20 8 11 1016.4 1013.4 0.0
24/04:00am 20.3 15.6 1.2 28 8.9 SE 15 19 8 10 1015.6 1012.7 0.0
24/03:30am 20.9 15.4 0.7 26 9.4 SE 19 26 10 14 1015.2 1012.3 0.0
24/03:00am 21.2 15.6 -0.1 24 9.7 SE 19 22 10 12 1014.9 1012.0 0.0
24/02:30am 21.4 16.1 -0.6 23 10.0 SSE 17 22 9 12 1014.6 1011.6 0.0
24/02:00am 21.6 15.8 -1.6 21 10.3 SSE 19 26 10 14 1014.4 1011.4 0.0
24/01:30am 21.9 16.1 -1.4 21 10.4 SSE 19 24 10 13 1014.4 1011.4 0.0
24/01:00am 22.4 16.5 -2.3 19 10.9 SSE 19 26 10 14 1014.5 1011.5 0.0
24/12:30am 22.9 16.8 -2.6 18 11.3 SSE 20 28 11 15 1014.5 1011.5 0.0
24/12:00am 23.1 17.1 -1.8 19 11.2 SSE 20 26 11 14 1014.5 1011.5 0.0
 
Date/Time
WST
Temp
°C
App
Temp
°C
Dew
Point
Rel
Hum
%
Delta-T
°C
Wind Press
QNH
hPa
Press
MSL
hPa
Rain
since 9 am
mm
Dir
 
Spd
km/h
Gust
km/h
Spd
kts
Gust
kts
23/11:30pm 23.4 17.4 -1.5 19 11.3 SSE 20 26 11 14 1014.6 1011.6 0.0
23/11:00pm 23.5 18.5 -1.4 19 11.3 S 15 20 8 11 1014.7 1011.8 0.0
23/10:30pm 23.6 19.3 -1.3 19 11.3 S 11 15 6 8 1014.9 1012.0 0.0
23/10:00pm 24.2 20.0 -0.9 19 11.6 S 11 13 6 7 1014.9 1012.0 0.0
23/09:30pm 25.1 20.9 -0.9 18 12.1 S 11 13 6 7 1014.9 1012.0 0.0
23/09:00pm 26.0 21.8 -0.9 17 12.6 S 11 17 6 9 1014.8 1011.9 0.0
23/08:30pm 26.7 21.9 0.4 18 12.7 S 15 19 8 10 1014.6 1011.6 0.0
23/08:00pm 27.4 23.0 2.5 20 12.5 S 15 17 8 9 1014.3 1011.3 0.0
23/07:30pm 27.9 24.0 1.4 18 13.1 S 11 15 6 8 1013.8 1010.9 0.0
23/07:00pm 28.6 23.9 1.2 17 13.6 SSW 15 26 8 14 1013.5 1010.6 0.0
23/06:30pm 29.2 23.7 0.8 16 14.0 S 19 28 10 15 1013.1 1010.2 0.0
23/06:00pm 29.9 23.8 0.5 15 14.5 S 22 28 12 15 1012.6 1009.6 0.0
23/05:30pm 30.8 26.1 1.2 15 14.8 WSW 15 26 8 14 1012.2 1009.2 0.0
23/05:00pm 30.9 25.3 1.3 15 14.9 SW 20 30 11 16 1012.0 1009.0 0.0
23/04:30pm 31.2 26.1 0.6 14 15.2 SW 17 28 9 15 1011.7 1008.8 0.0
23/04:00pm 31.4 26.8 1.7 15 15.1 SW 15 26 8 14 1011.6 1008.7 0.0
23/03:30pm 31.6 26.5 0.9 14 15.4 SW 17 33 9 18 1011.7 1008.8 0.0
23/03:00pm 31.9 26.4 2.1 15 15.3 SW 20 35 11 19 1011.7 1008.8 0.0
23/02:30pm 31.0 27.4 3.1 17 14.5 W 11 17 6 9 1011.7 1008.8 0.0
23/02:00pm 30.6 26.2 2.8 17 14.3 W 15 24 8 13 1012.2 1009.2 0.0
23/01:30pm 29.7 25.3 2.9 18 13.7 SW 15 24 8 13 1012.2 1009.2 0.0
23/01:00pm 30.5 25.4 4.3 19 13.8 WSW 20 33 11 18 1012.5 1009.5 0.0
23/12:30pm 30.2 25.1 4.0 19 13.7 SSW 20 37 11 20 1012.7 1009.7 0.0
23/12:00pm 28.6 25.0 4.8 22 12.5 SSW 13 24 7 13 1013.0 1010.1 0.0
23/11:30am 27.8 24.2 4.8 23 12.0 SSW 13 22 7 12 1013.5 1010.6 0.0
23/11:00am 27.7 23.7 4.7 23 12.0 SSW 15 30 8 16 1013.8 1010.9 0.0
23/10:30am 27.2 22.1 4.3 23 11.8 S 20 26 11 14 1014.0 1011.0 0.0
23/10:00am 26.4 22.3 4.2 24 11.4 S 15 26 8 14 1014.2 1011.2 0.0
23/09:30am 25.6 20.7 4.1 25 11.0 S 19 24 10 13 1014.3 1011.3 0.0
23/09:00am 24.2 19.7 4.0 27 10.2 S 17 24 9 13 1014.3 1011.3 0.0
23/08:30am 23.9 18.9 4.8 29 9.8 S 20 32 11 17 1014.4 1011.4 0.0
23/08:00am 23.7 18.3 4.6 29 9.7 S 22 33 12 18 1014.4 1011.4 0.0
23/07:30am 22.8 17.4 4.3 30 9.3 S 22 28 12 15 1014.3 1011.3 0.0
23/07:00am 22.0 16.5 4.1 31 8.9 SSE 22 28 12 15 1014.2 1011.2 0.0
23/06:30am 21.3 16.2 4.0 32 8.6 S 20 28 11 15 1013.8 1010.9 0.0
23/06:00am 20.5 16.4 4.1 34 8.1 S 15 22 8 12 1013.3 1010.4 0.0
23/05:30am 19.7 15.1 3.8 35 7.8 S 17 22 9 12 1012.8 1009.8 0.0
23/05:00am 19.6 15.4 3.7 35 7.7 S 15 20 8 11 1012.3 1009.3 0.0
23/04:30am 19.9 15.3 3.6 34 7.9 S 17 24 9 13 1011.7 1008.8 0.0
23/04:00am 20.4 15.2 3.6 33 8.2 S 20 28 11 15 1011.3 1008.4 0.0
23/03:30am 20.8 15.5 3.1 31 8.6 S 20 26 11 14 1011.2 1008.3 0.0
23/03:00am 21.4 16.3 3.1 30 8.9 S 19 26 10 14 1010.9 1007.9 0.0
23/02:30am 21.9 16.6 3.1 29 9.2 S 20 26 11 14 1010.8 1007.8 0.0
23/02:00am 22.4 17.8 3.5 29 9.4 S 17 24 9 13 1010.6 1007.6 0.0
23/01:30am 22.9 18.4 4.4 30 9.3 S 17 24 9 13 1010.5 1007.5 0.0
23/01:00am 23.6 19.1 4.0 28 9.9 S 17 22 9 12 1010.5 1007.5 0.0
23/12:30am 24.0 19.7 5.4 30 9.6 S 17 24 9 13 1010.8 1007.8 0.0
23/12:00am 24.5 20.3 5.8 30 9.8 SSW 17 26 9 14 1010.8 1007.8 0.0
 
Date/Time
WST
Temp
°C
App
Temp
°C
Dew
Point
Rel
Hum
%
Delta-T
°C
Wind Press
QNH
hPa
Press
MSL
hPa
Rain
since 9 am
mm
Dir
 
Spd
km/h
Gust
km/h
Spd
kts
Gust
kts
22/11:30pm 25.1 20.3 5.8 29 10.1 SSW 20 28 11 15 1010.9 1007.9 0.0
22/11:00pm 25.7 21.1 6.3 29 10.3 SSW 20 26 11 14 1010.9 1007.9 0.0
22/10:30pm 26.3 21.7 6.3 28 10.7 SSW 20 30 11 16 1011.1 1008.2 0.0
22/10:00pm 27.1 23.1 6.5 27 11.1 SW 17 24 9 13 1011.1 1008.2 0.0
22/09:30pm 27.6 23.8 5.8 25 11.6 SW 15 19 8 10 1011.0 1008.0 0.0
22/09:00pm 28.1 24.9 5.0 23 12.2 SW 11 13 6 7 1010.7 1007.7 0.0
22/08:30pm 28.9 25.3 5.1 22 12.6 SW 13 17 7 9 1010.5 1007.5 0.0
22/08:00pm 29.3 26.4 4.7 21 13.0 WSW 9 13 5 7 1010.1 1007.1 0.0
22/07:30pm 30.2 26.0 4.0 19 13.7 WSW 15 20 8 11 1009.9 1006.9 0.0
22/07:00pm 30.7 26.9 3.7 18 14.1 WSW 13 19 7 10 1009.5 1006.6 0.0
22/06:30pm 31.5 27.2 3.5 17 14.7 W 15 20 8 11 1009.3 1006.4 0.0
22/06:00pm 32.2 27.5 3.2 16 15.2 W 17 22 9 12 1009.1 1006.1 0.0
22/05:30pm 32.9 28.9 2.9 15 15.7 W 13 19 7 10 1008.7 1005.7 0.0
22/05:00pm 33.5 28.3 2.4 14 16.2 W 19 28 10 15 1008.6 1005.6 0.0
22/04:30pm 33.5 28.8 3.3 15 15.9 WSW 17 26 9 14 1008.5 1005.5 0.0
22/04:00pm 33.8 29.0 2.6 14 16.3 WNW 17 33 9 18 1008.6 1005.6 0.0
22/03:30pm 33.2 27.9 3.1 15 15.8 WNW 20 28 11 15 1008.8 1005.8 0.0
22/03:00pm 32.9 28.8 4.6 17 15.2 WNW 15 26 8 14 1009.1 1006.1 0.0
22/02:30pm 32.6 27.8 4.4 17 15.1 W 19 28 10 15 1009.3 1006.4 0.0
22/02:00pm 32.0 28.2 3.9 17 14.9 SW 13 22 7 12 1009.5 1006.6 0.0
22/01:30pm 32.7 28.6 4.5 17 15.1 NW 15 24 8 13 1010.0 1007.0 0.0
22/01:00pm 30.6 27.0 5.1 20 13.7 WSW 13 19 7 10 1010.5 1007.5 0.0
22/12:30pm 30.0 27.4 6.0 22 13.0 SW 9 20 5 11 1010.7 1007.7 0.0
22/12:00pm 29.9 27.0 6.5 23 12.8 NW 11 20 6 11 1011.1 1008.2 0.0
22/11:30am 29.8 26.9 6.5 23 12.7 NW 11 20 6 11 1011.5 1008.6 0.0
22/11:00am 28.9 26.4 8.0 27 11.6 W 11 22 6 12 1012.1 1009.1 0.0
22/10:30am 27.8 25.3 8.1 29 10.9 SW 11 22 6 12 1012.5 1009.5 0.0
22/10:00am 25.9 23.7 8.0 32 9.8 SSE 9 19 5 10 1012.9 1010.0 0.0
22/09:30am 25.5 23.4 8.1 33 9.5 S 9 19 5 10 1013.2 1010.3 0.0
22/09:00am 24.7 22.2 8.2 35 9.0 S 11 19 6 10 1013.4 1010.5 0.0
22/08:30am 23.5 19.8 8.0 37 8.4 SSE 17 26 9 14 1013.4 1010.5 0.0
22/08:00am 23.1 19.0 8.0 38 8.1 S 19 24 10 13 1013.5 1010.6 0.0
22/07:30am 22.2 17.3 8.3 41 7.5 SSE 24 30 13 16 1013.4 1010.5 0.0
22/07:00am 21.6 16.7 8.5 43 7.1 S 24 33 13 18 1013.1 1010.2 0.0
22/06:30am 20.8 15.8 8.1 44 6.8 S 24 32 13 17 1012.7 1009.7 0.0
22/06:00am 20.7 16.4 7.7 43 6.9 S 20 28 11 15 1012.2 1009.2 0.0
22/05:30am 20.0 16.5 7.1 43 6.7 S 15 19 8 10 1011.7 1008.8 0.0
22/05:00am 19.8 16.1 6.5 42 6.9 S 15 19 8 10 1011.3 1008.4 0.0
22/04:30am 19.8 16.5 6.2 41 7.0 SSW 13 17 7 9 1010.8 1007.8 0.0
22/04:00am 20.0 16.9 5.6 39 7.3 SSW 11 13 6 7 1010.5 1007.5 0.0
22/03:30am 19.7 16.8 4.6 37 7.5 SSW 9 11 5 6 1010.3 1007.3 0.0
22/03:00am 20.1 17.1 4.2 35 7.9 SSW 9 11 5 6 1010.1 1007.1 0.0
22/02:30am 20.8 17.8 4.0 33 8.3 S 9 11 5 6 1009.9 1006.9 0.0
22/02:00am 21.6 18.5 3.8 31 8.8 S 9 11 5 6 1009.8 1006.8 0.0
22/01:30am 22.1 19.0 3.7 30 9.1 S 9 11 5 6 1009.8 1006.8 0.0
22/01:00am 22.4 19.2 3.0 28 9.5 SSW 9 11 5 6 1009.8 1006.8 0.0
22/12:30am 23.0 19.3 2.5 26 10.0 SSW 11 15 6 8 1009.9 1006.9 0.0
22/12:00am 23.2 19.3 0.9 23 10.6 SW 11 13 6 7 1010.0 1007.0 0.0
 
Date/Time
WST
Temp
°C
App
Temp
°C
Dew
Point
Rel
Hum
%
Delta-T
°C
Wind Press
QNH
hPa
Press
MSL
hPa
Rain
since 9 am
mm
Dir
 
Spd
km/h
Gust
km/h
Spd
kts
Gust
kts
21/11:30pm 22.6 18.3 -1.5 20 10.9 SW 11 13 6 7 1010.1 1007.1 0.0
21/11:00pm 22.5 18.2 -1.6 20 10.8 WSW 11 13 6 7 1010.2 1007.2 0.0
21/10:30pm 23.0 19.2 -1.1 20 11.0 WSW 9 11 5 6 1010.3 1007.3 0.0
21/10:00pm 23.9 20.0 -1.8 18 11.6 WSW 9 9 5 5 1010.4 1007.4 0.0
21/09:30pm 25.3 21.3 -2.3 16 12.5 WSW 9 13 5 7 1010.6 1007.6 0.0
21/09:00pm 26.6 22.6 -2.1 15 13.2 WSW 9 13 5 7 1010.5 1007.5 0.0
21/08:30pm 28.0 23.1 -3.0 13 14.2 WSW 13 17 7 9 1010.4 1007.4 0.0
21/08:00pm 29.0 23.4 -3.2 12 14.8 SW 17 22 9 12 1010.1 1007.1 0.0
21/07:30pm 29.7 23.4 -3.9 11 15.3 WSW 20 28 11 15 1009.8 1006.8 0.0
21/07:00pm 30.6 24.4 -3.2 11 15.7 WSW 20 28 11 15 1009.3 1006.4 0.0
21/06:30pm 31.6 25.6 -1.2 12 15.9 WSW 20 26 11 14 1008.9 1005.9 0.0
21/06:00pm 32.8 27.2 -0.3 12 16.4 W 19 30 10 16 1008.6 1005.6 0.0
21/05:30pm 33.4 27.1 1.3 13 16.4 W 24 32 13 17 1008.3 1005.3 0.0

Other Formats:

Comma delimited format used in spreadsheet applications
http://www.bom.gov.au/fwo/IDW60801/IDW60801.95448.axf

JavaScript Object Notation format (JSON) in row-major order
http://www.bom.gov.au/fwo/IDW60801/IDW60801.95448.json